Terminal Aerodrome Forecast
Issued by NWS Duluth, MN

Home | Current Version | Previous Version | Text Only | Print | Product List | Glossary On
Versions: 1 2 3 4 5 6 7 8 9 10 11 12 13 14 15 16 17 18 19 20 21 22 23 24 25 26
000
FTUS43 KDLH 252022 AAA
TAFINL
TAF AMD
KINL 252022Z 2520/2618 23010G17KT P6SM VCSH SCT015 OVC035
     FM252200 25012G19KT P6SM VCSH OVC015
     FM260200 26012G21KT P6SM -RA OVC007
     FM261400 30015G25KT P6SM -RA OVC015=

USA.gov is the U.S. government's official web portal to all federal, state and local government web resources and services.